sensor_id;sensor_type;location;lat;lon;timestamp;pressure;altitude;pressure_sealevel;temperature;humidity
11124;BME280;5616;42.692;23.312;2024-01-15T00:02:05;94753.47;;;0.56;68.52
11124;BME280;5616;42.692;23.312;2024-01-15T00:04:36;94758.06;;;0.52;64.78
11124;BME280;5616;42.692;23.312;2024-01-15T00:07:01;94740.81;;;0.47;66.15
11124;BME280;5616;42.692;23.312;2024-01-15T00:09:27;94757.78;;;0.39;65.71
11124;BME280;5616;42.692;23.312;2024-01-15T00:11:53;94741.19;;;0.36;67.64
11124;BME280;5616;42.692;23.312;2024-01-15T00:14:18;94752.72;;;0.39;68.76
11124;BME280;5616;42.692;23.312;2024-01-15T00:16:45;94750.19;;;0.47;66.04
11124;BME280;5616;42.692;23.312;2024-01-15T00:19:10;94748.25;;;0.49;68.48
11124;BME280;5616;42.692;23.312;2024-01-15T00:21:36;94756.47;;;0.51;65.98
11124;BME280;5616;42.692;23.312;2024-01-15T00:24:01;94752.38;;;0.42;66.84
11124;BME280;5616;42.692;23.312;2024-01-15T00:26:27;94747.97;;;0.36;64.83
11124;BME280;5616;42.692;23.312;2024-01-15T00:28:52;94756.81;;;0.32;66.17
11124;BME280;5616;42.692;23.312;2024-01-15T00:31:18;94757.13;;;0.37;65.74
11124;BME280;5616;42.692;23.312;2024-01-15T00:33:43;94749.84;;;0.34;66.46
11124;BME280;5616;42.692;23.312;2024-01-15T00:36:09;94750.50;;;0.36;65.83
11124;BME280;5616;42.692;23.312;2024-01-15T00:38:34;94754.44;;;0.30;65.98
11124;BME280;5616;42.692;23.312;2024-01-15T00:41:00;94754.44;;;0.30;67.78
11124;BME280;5616;42.692;23.312;2024-01-15T00:43:25;94752.06;;;0.37;64.10
11124;BME280;5616;42.692;23.312;2024-01-15T00:45:51;94747.97;;;0.36;65.83
11124;BME280;5616;42.692;23.312;2024-01-15T00:48:16;94750.81;;;0.25;67.02
11124;BME280;5616;42.692;23.312;2024-01-15T00:50:41;94747.97;;;0.20;64.58
11124;BME280;5616;42.692;23.312;2024-01-15T00:53:07;94754.28;;;0.16;65.99
11124;BME280;5616;42.692;23.312;2024-01-15T00:55:32;94751.28;;;0.12;65.66
11124;BME280;5616;42.692;23.312;2024-01-15T00:57:58;94752.41;;;0.10;65.59
11124;BME280;5616;42.692;23.312;2024-01-15T01:00:23;94741.97;;;0.13;65.45
11124;BME280;5616;42.692;23.312;2024-01-15T01:02:49;94749.88;;;0.18;65.65
11124;BME280;5616;42.692;23.312;2024-01-15T01:05:14;94748.28;;;0.17;65.43
11124;BME280;5616;42.692;23.312;2024-01-15T01:07:40;94749.56;;;0.21;64.59
11124;BME280;5616;42.692;23.312;2024-01-15T01:10:05;94741.78;;;0.22;64.88
11124;BME280;5616;42.692;23.312;2024-01-15T01:12:31;94742.44;;;0.16;64.86
11124;BME280;5616;42.692;23.312;2024-01-15T01:14:57;94744.50;;;0.13;65.22
11124;BME280;5616;42.692;23.312;2024-01-15T01:17:24;94738.16;;;0.09;65.55
11124;BME280;5616;42.692;23.312;2024-01-15T01:19:50;94737.53;;;0.07;64.82
11124;BME280;5616;42.692;23.312;2024-01-15T01:22:15;94732.16;;;0.10;65.01
11124;BME280;5616;42.692;23.312;2024-01-15T01:24:41;94736.91;;;0.13;65.09
11124;BME280;5616;42.692;23.312;2024-01-15T01:27:06;94730.72;;;0.15;67.45
11124;BME280;5616;42.692;23.312;2024-01-15T01:29:32;94734.69;;;0.18;67.23
11124;BME280;5616;42.692;23.312;2024-01-15T01:31:58;94716.81;;;0.19;65.92
11124;BME280;5616;42.692;23.312;2024-01-15T01:34:23;94720.78;;;0.22;66.73
11124;BME280;5616;42.692;23.312;2024-01-15T01:36:49;94722.03;;;0.26;66.04
11124;BME280;5616;42.692;23.312;2024-01-15T01:39:14;94727.09;;;0.26;67.07
11124;BME280;5616;42.692;23.312;2024-01-15T01:41:40;94713.81;;;0.32;68.37
11124;BME280;5616;42.692;23.312;2024-01-15T01:44:05;94714.44;;;0.34;65.85
11124;BME280;5616;42.692;23.312;2024-01-15T01:46:31;94715.09;;;0.28;64.14
11124;BME280;5616;42.692;23.312;2024-01-15T01:48:57;94719.53;;;0.18;66.39
11124;BME280;5616;42.692;23.312;2024-01-15T01:51:24;94713.34;;;0.20;66.91
11124;BME280;5616;42.692;23.312;2024-01-15T01:53:50;94715.22;;;0.26;65.64
11124;BME280;5616;42.692;23.312;2024-01-15T01:56:16;94711.16;;;0.25;65.08
11124;BME280;5616;42.692;23.312;2024-01-15T01:58:43;94702.44;;;0.20;66.97
11124;BME280;5616;42.692;23.312;2024-01-15T02:01:08;94709.41;;;0.02;65.09
11124;BME280;5616;42.692;23.312;2024-01-15T02:03:34;94706.53;;;-0.04;65.78
11124;BME280;5616;42.692;23.312;2024-01-15T02:06:00;94711.91;;;-0.07;65.89
11124;BME280;5616;42.692;23.312;2024-01-15T02:08:26;94703.72;;;-0.09;67.28
11124;BME280;5616;42.692;23.312;2024-01-15T02:10:52;94698.03;;;-0.03;67.23
11124;BME280;5616;42.692;23.312;2024-01-15T02:13:18;94698.03;;;-0.03;67.86
11124;BME280;5616;42.692;23.312;2024-01-15T02:15:44;94693.91;;;0.05;66.31
11124;BME280;5616;42.692;23.312;2024-01-15T02:18:09;94686.66;;;0.10;65.86
11124;BME280;5616;42.692;23.312;2024-01-15T02:20:35;94684.75;;;0.12;65.92
11124;BME280;5616;42.692;23.312;2024-01-15T02:25:29;94655.97;;;0.13;66.25
11124;BME280;5616;42.692;23.312;2024-01-15T02:27:55;94641.75;;;0.20;66.39
11124;BME280;5616;42.692;23.312;2024-01-15T02:30:21;94637.78;;;0.25;66.39
11124;BME280;5616;42.692;23.312;2024-01-15T02:32:48;94631.13;;;0.32;65.36
11124;BME280;5616;42.692;23.312;2024-01-15T02:35:14;94633.94;;;0.37;65.76
11124;BME280;5616;42.692;23.312;2024-01-15T02:37:39;94636.00;;;0.42;65.56
11124;BME280;5616;42.692;23.312;2024-01-15T02:40:05;94637.59;;;0.35;64.89
11124;BME280;5616;42.692;23.312;2024-01-15T02:42:30;94637.94;;;0.32;65.45
11124;BME280;5616;42.692;23.312;2024-01-15T02:44:56;94636.97;;;0.33;65.88
11124;BME280;5616;42.692;23.312;2024-01-15T02:47:21;94641.72;;;0.36;64.43
11124;BME280;5616;42.692;23.312;2024-01-15T02:49:47;94639.19;;;0.36;64.69
11124;BME280;5616;42.692;23.312;2024-01-15T02:52:12;94645.19;;;0.35;65.37
11124;BME280;5616;42.692;23.312;2024-01-15T02:54:38;94638.88;;;0.31;66.98
11124;BME280;5616;42.692;23.312;2024-01-15T02:57:03;94641.72;;;0.36;66.32
11124;BME280;5616;42.692;23.312;2024-01-15T02:59:29;94630.63;;;0.37;65.63
11124;BME280;5616;42.692;23.312;2024-01-15T03:01:54;94634.94;;;0.36;65.66
11124;BME280;5616;42.692;23.312;2024-01-15T03:04:20;94630.81;;;0.35;65.20
11124;BME280;5616;42.692;23.312;2024-01-15T03:06:45;94632.06;;;0.39;65.21
11124;BME280;5616;42.692;23.312;2024-01-15T03:09:10;94637.91;;;0.40;64.71
11124;BME280;5616;42.692;23.312;2024-01-15T03:11:39;94646.44;;;0.39;64.84
11124;BME280;5616;42.692;23.312;2024-01-15T03:14:05;94630.81;;;0.35;65.04
11124;BME280;5616;42.692;23.312;2024-01-15T03:16:30;94626.53;;;0.36;63.98
11124;BME280;5616;42.692;23.312;2024-01-15T03:18:56;94628.75;;;0.31;64.44
11124;BME280;5616;42.692;23.312;2024-01-15T03:21:21;94627.53;;;0.11;64.25
11124;BME280;5616;42.692;23.312;2024-01-15T03:23:46;94619.31;;;0.09;64.12
11124;BME280;5616;42.692;23.312;2024-01-15T03:26:12;94620.91;;;0.10;63.93
11124;BME280;5616;42.692;23.312;2024-01-15T03:28:37;94618.84;;;0.13;63.56
11124;BME280;5616;42.692;23.312;2024-01-15T03:31:03;94606.66;;;0.17;64.94
11124;BME280;5616;42.692;23.312;2024-01-15T03:33:29;94606.66;;;0.17;64.11
11124;BME280;5616;42.692;23.312;2024-01-15T03:35:54;94620.25;;;0.08;64.21
11124;BME280;5616;42.692;23.312;2024-01-15T03:38:19;94614.25;;;0.09;65.51
11124;BME280;5616;42.692;23.312;2024-01-15T03:40:45;94612.06;;;0.06;66.83
11124;BME280;5616;42.692;23.312;2024-01-15T03:43:10;94606.88;;;-0.09;64.89
11124;BME280;5616;42.692;23.312;2024-01-15T03:45:36;94607.66;;;-0.09;65.79
11124;BME280;5616;42.692;23.312;2024-01-15T03:48:01;94609.25;;;-0.08;66.95
11124;BME280;5616;42.692;23.312;2024-01-15T03:50:27;94606.38;;;0.04;65.25
11124;BME280;5616;42.692;23.312;2024-01-15T03:52:52;94613.00;;;0.05;64.71
11124;BME280;5616;42.692;23.312;2024-01-15T03:55:18;94612.19;;;0.12;64.20
11124;BME280;5616;42.692;23.312;2024-01-15T03:57:43;94613.13;;;0.11;62.58
11124;BME280;5616;42.692;23.312;2024-01-15T04:00:09;94614.25;;;0.09;63.93
11124;BME280;5616;42.692;23.312;2024-01-15T04:02:35;94614.25;;;0.09;64.05
11124;BME280;5616;42.692;23.312;2024-01-15T04:05:00;94604.19;;;-0.08;63.65
11124;BME280;5616;42.692;23.312;2024-01-15T04:07:25;94592.50;;;-0.09;65.15
11124;BME280;5616;42.692;23.312;2024-01-15T04:09:51;94591.22;;;-0.13;64.74
11124;BME280;5616;42.692;23.312;2024-01-15T04:12:16;94589.34;;;-0.27;63.12
11124;BME280;5616;42.692;23.312;2024-01-15T04:14:42;94591.41;;;-0.30;64.55
11124;BME280;5616;42.692;23.312;2024-01-15T04:17:07;94591.41;;;-0.30;65.44
11124;BME280;5616;42.692;23.312;2024-01-15T04:19:33;94598.34;;;-0.24;65.47
11124;BME280;5616;42.692;23.312;2024-01-15T04:21:58;94592.81;;;-0.28;65.68
11124;BME280;5616;42.692;23.312;2024-01-15T04:24:24;94593.63;;;-0.27;65.30
11124;BME280;5616;42.692;23.312;2024-01-15T04:26:49;94590.63;;;-0.23;65.06
11124;BME280;5616;42.692;23.312;2024-01-15T04:29:15;94583.97;;;-0.24;64.11
11124;BME280;5616;42.692;23.312;2024-01-15T04:31:40;94601.66;;;-0.32;64.54
11124;BME280;5616;42.692;23.312;2024-01-15T04:34:06;94591.41;;;-0.38;64.43
11124;BME280;5616;42.692;23.312;2024-01-15T04:36:31;94593.13;;;-0.47;64.20
11124;BME280;5616;42.692;23.312;2024-01-15T04:38:57;94591.91;;;-0.59;64.84
11124;BME280;5616;42.692;23.312;2024-01-15T04:41:22;94593.28;;;-0.65;65.73
11124;BME280;5616;42.692;23.312;2024-01-15T04:43:48;94589.69;;;-0.70;65.20
11124;BME280;5616;42.692;23.312;2024-01-15T04:46:13;94584.63;;;-0.62;66.01
11124;BME280;5616;42.692;23.312;2024-01-15T04:48:39;94589.03;;;-0.64;66.64
11124;BME280;5616;42.692;23.312;2024-01-15T04:51:05;94590.63;;;-0.55;65.35
11124;BME280;5616;42.692;23.312;2024-01-15T04:53:31;94588.25;;;-0.57;65.56
11124;BME280;5616;42.692;23.312;2024-01-15T04:55:57;94587.63;;;-0.51;66.25
11124;BME280;5616;42.692;23.312;2024-01-15T04:58:22;94568.81;;;-0.40;66.48
11124;BME280;5616;42.692;23.312;2024-01-15T05:00:51;94573.56;;;-0.37;66.18
11124;BME280;5616;42.692;23.312;2024-01-15T05:03:16;94573.53;;;-0.29;67.11
11124;BME280;5616;42.692;23.312;2024-01-15T05:05:42;94570.06;;;-0.28;65.21
11124;BME280;5616;42.692;23.312;2024-01-15T05:08:07;94569.44;;;-0.22;65.82
11124;BME280;5616;42.692;23.312;2024-01-15T05:10:32;94574.00;;;-0.17;65.69
11124;BME280;5616;42.692;23.312;2024-01-15T05:12:58;94563.28;;;-0.11;63.86
11124;BME280;5616;42.692;23.312;2024-01-15T05:15:23;94557.88;;;-0.08;64.55
11124;BME280;5616;42.692;23.312;2024-01-15T05:17:49;94557.22;;;-0.02;63.42
11124;BME280;5616;42.692;23.312;2024-01-15T05:20:14;94567.47;;;0.05;63.47
11124;BME280;5616;42.692;23.312;2024-01-15T05:22:40;94564.19;;;-0.04;65.42
11124;BME280;5616;42.692;23.312;2024-01-15T05:25:06;94567.53;;;-0.12;65.24
11124;BME280;5616;42.692;23.312;2024-01-15T05:27:31;94566.75;;;-0.12;67.12
11124;BME280;5616;42.692;23.312;2024-01-15T05:29:57;94571.94;;;-0.22;65.83
11124;BME280;5616;42.692;23.312;2024-01-15T05:32:23;94570.72;;;-0.26;65.81
11124;BME280;5616;42.692;23.312;2024-01-15T05:34:49;94551.44;;;-0.19;64.43
11124;BME280;5616;42.692;23.312;2024-01-15T05:37:14;94554.91;;;-0.20;64.77
11124;BME280;5616;42.692;23.312;2024-01-15T05:39:40;94543.53;;;-0.24;65.12
11124;BME280;5616;42.692;23.312;2024-01-15T05:42:05;94554.63;;;-0.33;64.43
11124;BME280;5616;42.692;23.312;2024-01-15T05:44:31;94556.34;;;-0.50;65.16
11124;BME280;5616;42.692;23.312;2024-01-15T05:46:56;94555.88;;;-0.45;64.96
11124;BME280;5616;42.692;23.312;2024-01-15T05:49:22;94544.19;;;-0.38;64.83
11124;BME280;5616;42.692;23.312;2024-01-15T05:51:47;94535.16;;;-0.32;64.99
11124;BME280;5616;42.692;23.312;2024-01-15T05:54:13;94528.22;;;-0.30;64.59
11124;BME280;5616;42.692;23.312;2024-01-15T05:56:38;94532.50;;;-0.23;64.34
11124;BME280;5616;42.692;23.312;2024-01-15T05:59:04;94529.31;;;-0.17;64.14
11124;BME280;5616;42.692;23.312;2024-01-15T06:01:29;94548.59;;;-0.16;65.94
11124;BME280;5616;42.692;23.312;2024-01-15T06:03:55;94541.78;;;-0.15;65.09
11124;BME280;5616;42.692;23.312;2024-01-15T06:06:20;94546.19;;;-0.09;64.49
11124;BME280;5616;42.692;23.312;2024-01-15T06:08:46;94538.75;;;-0.11;64.40
11124;BME280;5616;42.692;23.312;2024-01-15T06:11:11;94559.97;;;-0.20;66.21
11124;BME280;5616;42.692;23.312;2024-01-15T06:13:37;94545.25;;;-0.16;66.24
11124;BME280;5616;42.692;23.312;2024-01-15T06:16:02;94556.78;;;-0.06;66.09
11124;BME280;5616;42.692;23.312;2024-01-15T06:18:28;94539.06;;;0.03;66.58
11124;BME280;5616;42.692;23.312;2024-01-15T06:20:53;94542.19;;;0.05;64.49
11124;BME280;5616;42.692;23.312;2024-01-15T06:23:19;94532.88;;;0.05;66.25
11124;BME280;5616;42.692;23.312;2024-01-15T06:25:44;94517.72;;;0.05;65.50
11124;BME280;5616;42.692;23.312;2024-01-15T06:28:10;94523.88;;;0.03;65.92
11124;BME280;5616;42.692;23.312;2024-01-15T06:30:35;94526.69;;;0.08;66.71
11124;BME280;5616;42.692;23.312;2024-01-15T06:33:01;94539.06;;;0.03;65.40
11124;BME280;5616;42.692;23.312;2024-01-15T06:35:27;94544.72;;;0.05;65.92
11124;BME280;5616;42.692;23.312;2024-01-15T06:37:52;94539.03;;;0.11;67.58
11124;BME280;5616;42.692;23.312;2024-01-15T06:40:18;94539.97;;;0.10;65.49
11124;BME280;5616;42.692;23.312;2024-01-15T06:42:43;94532.69;;;0.15;66.21
11124;BME280;5616;42.692;23.312;2024-01-15T06:45:09;94534.59;;;0.13;66.02
11124;BME280;5616;42.692;23.312;2024-01-15T06:47:34;94538.72;;;0.06;64.21
11124;BME280;5616;42.692;23.312;2024-01-15T06:50:00;94536.06;;;0.07;64.98
11124;BME280;5616;42.692;23.312;2024-01-15T06:52:25;94540.44;;;0.13;65.17
11124;BME280;5616;42.692;23.312;2024-01-15T06:54:50;94538.41;;;0.09;65.59
11124;BME280;5616;42.692;23.312;2024-01-15T06:57:16;94542.50;;;0.18;65.93
11124;BME280;5616;42.692;23.312;2024-01-15T06:59:41;94556.81;;;0.33;65.97
11124;BME280;5616;42.692;23.312;2024-01-15T07:02:07;94558.19;;;0.44;65.03
11124;BME280;5616;42.692;23.312;2024-01-15T07:04:32;94555.97;;;0.49;65.91
11124;BME280;5616;42.692;23.312;2024-01-15T07:06:58;94554.00;;;0.59;64.94
11124;BME280;5616;42.692;23.312;2024-01-15T07:09:23;94547.03;;;0.69;64.78
11124;BME280;5616;42.692;23.312;2024-01-15T07:11:49;94552.84;;;0.70;64.33
11124;BME280;5616;42.692;23.312;2024-01-15T07:14:14;94555.28;;;0.55;62.85
11124;BME280;5616;42.692;23.312;2024-01-15T07:16:40;94553.06;;;0.60;62.90
11124;BME280;5616;42.692;23.312;2024-01-15T07:19:05;94560.97;;;0.65;64.53
11124;BME280;5616;42.692;23.312;2024-01-15T07:21:31;94554.00;;;0.59;62.36
11124;BME280;5616;42.692;23.312;2024-01-15T07:23:57;94547.03;;;0.69;61.29
11124;BME280;5616;42.692;23.312;2024-01-15T07:26:22;94547.94;;;0.76;61.61
11124;BME280;5616;42.692;23.312;2024-01-15T07:28:48;94551.88;;;0.79;63.70
11124;BME280;5616;42.692;23.312;2024-01-15T07:31:15;94522.22;;;0.87;64.07
11124;BME280;5616;42.692;23.312;2024-01-15T07:33:41;94530.38;;;0.97;63.25
11124;BME280;5616;42.692;23.312;2024-01-15T07:36:07;94528.47;;;0.99;63.05
11124;BME280;5616;42.692;23.312;2024-01-15T07:38:32;94531.91;;;1.07;64.41
11124;BME280;5616;42.692;23.312;2024-01-15T07:40:58;94537.25;;;1.12;62.92
11124;BME280;5616;42.692;23.312;2024-01-15T07:43:23;94536.91;;;1.15;63.58
11124;BME280;5616;42.692;23.312;2024-01-15T07:45:49;94540.41;;;1.14;62.07
11124;BME280;5616;42.692;23.312;2024-01-15T07:48:14;94534.97;;;1.17;61.32
11124;BME280;5616;42.692;23.312;2024-01-15T07:50:40;94541.81;;;1.16;62.61
11124;BME280;5616;42.692;23.312;2024-01-15T07:53:05;94552.66;;;1.25;62.63
11124;BME280;5616;42.692;23.312;2024-01-15T07:55:31;94548.50;;;1.32;60.31
11124;BME280;5616;42.692;23.312;2024-01-15T07:57:57;94554.81;;;1.36;62.26
11124;BME280;5616;42.692;23.312;2024-01-15T08:00:25;94514.19;;;1.44;60.98
11124;BME280;5616;42.692;23.312;2024-01-15T08:02:50;94503.09;;;1.45;61.30
11124;BME280;5616;42.692;23.312;2024-01-15T08:05:16;94505.91;;;1.50;62.37
11124;BME280;5616;42.692;23.312;2024-01-15T08:07:42;94519.66;;;1.56;61.76
11124;BME280;5616;42.692;23.312;2024-01-15T08:10:07;94531.91;;;1.67;61.09
11124;BME280;5616;42.692;23.312;2024-01-15T08:12:33;94535.13;;;1.75;61.82
11124;BME280;5616;42.692;23.312;2024-01-15T08:14:58;94544.25;;;1.84;63.09
11124;BME280;5616;42.692;23.312;2024-01-15T08:17:24;94540.41;;;1.88;59.17
11124;BME280;5616;42.692;23.312;2024-01-15T08:19:54;94526.44;;;1.92;59.14
11124;BME280;5616;42.692;23.312;2024-01-15T08:22:20;94542.69;;;1.98;60.84
11124;BME280;5616;42.692;23.312;2024-01-15T08:24:45;94547.75;;;1.98;61.67
11124;BME280;5616;42.692;23.312;2024-01-15T08:27:11;94551.97;;;2.06;61.74
11124;BME280;5616;42.692;23.312;2024-01-15T08:29:36;94544.00;;;2.09;62.38
11124;BME280;5616;42.692;23.312;2024-01-15T08:32:02;94536.47;;;2.15;59.42
11124;BME280;5616;42.692;23.312;2024-01-15T08:34:28;94522.66;;;2.18;58.54
11124;BME280;5616;42.692;23.312;2024-01-15T08:36:53;94513.47;;;2.17;59.41
11124;BME280;5616;42.692;23.312;2024-01-15T08:39:19;94515.66;;;2.05;58.86
11124;BME280;5616;42.692;23.312;2024-01-15T08:41:45;94509.47;;;2.08;60.55
11124;BME280;5616;42.692;23.312;2024-01-15T08:44:12;94511.88;;;2.16;60.33
11124;BME280;5616;42.692;23.312;2024-01-15T08:46:38;94500.88;;;2.23;61.46
11124;BME280;5616;42.692;23.312;2024-01-15T08:49:03;94501.56;;;2.32;61.28
11124;BME280;5616;42.692;23.312;2024-01-15T08:51:29;94511.63;;;2.40;61.33
11124;BME280;5616;42.692;23.312;2024-01-15T08:53:56;94509.59;;;2.50;59.62
11124;BME280;5616;42.692;23.312;2024-01-15T08:56:22;94506.22;;;2.64;60.58
11124;BME280;5616;42.692;23.312;2024-01-15T08:58:47;94491.47;;;2.74;59.74
11124;BME280;5616;42.692;23.312;2024-01-15T09:01:13;94477.47;;;2.78;56.80
11124;BME280;5616;42.692;23.312;2024-01-15T09:03:39;94479.63;;;2.81;57.14
11124;BME280;5616;42.692;23.312;2024-01-15T09:06:07;94476.72;;;2.84;59.30
11124;BME280;5616;42.692;23.312;2024-01-15T09:08:33;94472.88;;;2.88;58.75
11124;BME280;5616;42.692;23.312;2024-01-15T09:10:58;94465.50;;;2.93;58.08
11124;BME280;5616;42.692;23.312;2024-01-15T09:13:23;94444.00;;;2.96;58.50
11124;BME280;5616;42.692;23.312;2024-01-15T09:15:49;94431.50;;;2.94;57.58
11124;BME280;5616;42.692;23.312;2024-01-15T09:18:14;94420.59;;;3.01;57.64
11124;BME280;5616;42.692;23.312;2024-01-15T09:20:40;94433.56;;;3.06;59.82
11124;BME280;5616;42.692;23.312;2024-01-15T09:23:05;94433.19;;;3.09;60.21
11124;BME280;5616;42.692;23.312;2024-01-15T09:25:31;94423.44;;;3.12;57.78
11124;BME280;5616;42.692;23.312;2024-01-15T09:27:57;94418.78;;;3.16;59.16
11124;BME280;5616;42.692;23.312;2024-01-15T09:30:23;94411.94;;;3.16;57.09
11124;BME280;5616;42.692;23.312;2024-01-15T09:32:48;94414.53;;;3.23;58.06
11124;BME280;5616;42.692;23.312;2024-01-15T09:35:14;94417.31;;;3.28;58.12
11124;BME280;5616;42.692;23.312;2024-01-15T09:37:41;94406.66;;;3.18;57.77
11124;BME280;5616;42.692;23.312;2024-01-15T09:40:08;94409.81;;;3.20;57.29
11124;BME280;5616;42.692;23.312;2024-01-15T09:42:36;94399.28;;;3.23;56.62
11124;BME280;5616;42.692;23.312;2024-01-15T09:45:02;94395.72;;;3.17;58.83
11124;BME280;5616;42.692;23.312;2024-01-15T09:47:29;94387.50;;;3.15;59.50
11124;BME280;5616;42.692;23.312;2024-01-15T09:49:55;94379.22;;;3.07;57.96
11124;BME280;5616;42.692;23.312;2024-01-15T09:52:24;94378.06;;;3.09;56.91
11124;BME280;5616;42.692;23.312;2024-01-15T09:54:52;94372.78;;;3.11;56.98
11124;BME280;5616;42.692;23.312;2024-01-15T09:57:17;94353.66;;;3.15;58.16
11124;BME280;5616;42.692;23.312;2024-01-15T09:59:43;94352.72;;;3.16;56.76
11124;BME280;5616;42.692;23.312;2024-01-15T10:02:10;94360.91;;;3.18;56.72
11124;BME280;5616;42.692;23.312;2024-01-15T10:04:39;94363.66;;;3.16;62.07
11124;BME280;5616;42.692;23.312;2024-01-15T10:07:06;94364.78;;;3.14;60.19
11124;BME280;5616;42.692;23.312;2024-01-15T10:09:33;94349.94;;;3.11;59.51
11124;BME280;5616;42.692;23.312;2024-01-15T10:11:59;94337.47;;;3.16;59.36
11124;BME280;5616;42.692;23.312;2024-01-15T10:14:24;94335.53;;;3.24;58.12
11124;BME280;5616;42.692;23.312;2024-01-15T10:16:50;94335.41;;;3.32;57.37
11124;BME280;5616;42.692;23.312;2024-01-15T10:19:15;94335.25;;;3.40;58.95
11124;BME280;5616;42.692;23.312;2024-01-15T10:21:41;94323.19;;;3.49;58.58
11124;BME280;5616;42.692;23.312;2024-01-15T10:24:06;94318.91;;;3.56;58.14
11124;BME280;5616;42.692;23.312;2024-01-15T10:26:32;94317.75;;;3.65;55.70
11124;BME280;5616;42.692;23.312;2024-01-15T10:28:58;94299.00;;;3.66;57.97
11124;BME280;5616;42.692;23.312;2024-01-15T10:31:25;94300.59;;;3.80;57.92
11124;BME280;5616;42.692;23.312;2024-01-15T10:33:51;94301.00;;;3.90;56.22
11124;BME280;5616;42.692;23.312;2024-01-15T10:36:17;94303.78;;;4.02;54.96
11124;BME280;5616;42.692;23.312;2024-01-15T10:38:44;94292.44;;;4.05;55.31
11124;BME280;5616;42.692;23.312;2024-01-15T10:41:10;94285.59;;;4.12;54.66
11124;BME280;5616;42.692;23.312;2024-01-15T10:43:35;94304.41;;;4.17;53.84
11124;BME280;5616;42.692;23.312;2024-01-15T10:46:01;94290.91;;;4.23;54.05
11124;BME280;5616;42.692;23.312;2024-01-15T10:48:26;94291.91;;;4.29;54.63
11124;BME280;5616;42.692;23.312;2024-01-15T10:50:54;94290.72;;;4.38;54.25
11124;BME280;5616;42.692;23.312;2024-01-15T10:53:20;94277.25;;;4.44;53.30
11124;BME280;5616;42.692;23.312;2024-01-15T10:55:46;94267.44;;;4.48;53.09
11124;BME280;5616;42.692;23.312;2024-01-15T10:58:14;94273.69;;;4.45;54.54
11124;BME280;5616;42.692;23.312;2024-01-15T11:00:40;94274.47;;;4.52;54.59
11124;BME280;5616;42.692;23.312;2024-01-15T11:03:06;94280.34;;;4.59;53.21
11124;BME280;5616;42.692;23.312;2024-01-15T11:05:39;94265.47;;;4.69;52.49
11124;BME280;5616;42.692;23.312;2024-01-15T11:08:08;94270.34;;;4.77;52.32
11124;BME280;5616;42.692;23.312;2024-01-15T11:10:47;94269.38;;;4.78;51.23
11124;BME280;5616;42.692;23.312;2024-01-15T11:13:15;94249.59;;;4.80;47.86
11124;BME280;5616;42.692;23.312;2024-01-15T11:21:24;94239.97;;;4.82;50.68
11124;BME280;5616;42.692;23.312;2024-01-15T11:24:01;94232.72;;;4.86;50.20
11124;BME280;5616;42.692;23.312;2024-01-15T11:26:31;94231.53;;;4.95;52.69
11124;BME280;5616;42.692;23.312;2024-01-15T11:29:02;94230.53;;;5.03;50.61
11124;BME280;5616;42.692;23.312;2024-01-15T11:34:20;94226.72;;;5.25;50.71
11124;BME280;5616;42.692;23.312;2024-01-15T11:41:53;94218.22;;;5.44;50.21
11124;BME280;5616;42.692;23.312;2024-01-15T11:44:19;94208.78;;;5.51;50.40
11124;BME280;5616;42.692;23.312;2024-01-15T11:52:11;94202.00;;;5.70;50.64
11124;BME280;5616;42.692;23.312;2024-01-15T11:54:41;94201.97;;;5.76;49.29
11124;BME280;5616;42.692;23.312;2024-01-15T11:57:16;94189.94;;;5.83;49.35
11124;BME280;5616;42.692;23.312;2024-01-15T11:59:43;94192.16;;;5.86;49.84
11124;BME280;5616;42.692;23.312;2024-01-15T12:02:09;94201.94;;;5.89;50.42
11124;BME280;5616;42.692;23.312;2024-01-15T12:04:38;94193.28;;;5.90;50.06
11124;BME280;5616;42.692;23.312;2024-01-15T12:07:04;94182.66;;;5.94;51.66
11124;BME280;5616;42.692;23.312;2024-01-15T12:09:30;94188.91;;;5.98;50.68
11124;BME280;5616;42.692;23.312;2024-01-15T12:12:03;94187.72;;;6.00;50.78
11124;BME280;5616;42.692;23.312;2024-01-15T12:14:32;94179.84;;;6.02;50.77
11124;BME280;5616;42.692;23.312;2024-01-15T12:16:57;94174.34;;;6.05;50.83
11124;BME280;5616;42.692;23.312;2024-01-15T12:19:23;94163.28;;;6.11;49.49
11124;BME280;5616;42.692;23.312;2024-01-15T12:21:50;94163.28;;;6.11;49.93
11124;BME280;5616;42.692;23.312;2024-01-15T12:24:17;94170.38;;;6.09;50.13
11124;BME280;5616;42.692;23.312;2024-01-15T12:26:42;94170.94;;;6.11;52.59
11124;BME280;5616;42.692;23.312;2024-01-15T12:29:10;94165.97;;;6.16;51.77
11124;BME280;5616;42.692;23.312;2024-01-15T12:31:36;94168.91;;;6.19;51.21
11124;BME280;5616;42.692;23.312;2024-01-15T12:34:01;94153.38;;;6.21;50.65
11124;BME280;5616;42.692;23.312;2024-01-15T12:36:30;94156.09;;;6.26;51.36
11124;BME280;5616;42.692;23.312;2024-01-15T12:38:59;94147.44;;;6.27;50.98
11124;BME280;5616;42.692;23.312;2024-01-15T12:41:24;94144.47;;;6.30;51.38
11124;BME280;5616;42.692;23.312;2024-01-15T12:43:50;94146.63;;;6.33;49.02
11124;BME280;5616;42.692;23.312;2024-01-15T12:46:16;94142.66;;;6.37;50.01
11124;BME280;5616;42.692;23.312;2024-01-15T12:48:41;94136.34;;;6.39;49.58
11124;BME280;5616;42.692;23.312;2024-01-15T12:51:08;94147.09;;;6.41;49.96
11124;BME280;5616;42.692;23.312;2024-01-15T12:53:33;94147.88;;;6.42;50.39
11124;BME280;5616;42.692;23.312;2024-01-15T12:55:59;94143.78;;;6.41;49.95
11124;BME280;5616;42.692;23.312;2024-01-15T12:58:24;94137.13;;;6.40;50.67
11124;BME280;5616;42.692;23.312;2024-01-15T13:00:50;94130.44;;;6.39;50.73
11124;BME280;5616;42.692;23.312;2024-01-15T13:03:15;94139.44;;;6.41;51.36
11124;BME280;5616;42.692;23.312;2024-01-15T13:05:41;94124.91;;;6.42;51.33
11124;BME280;5616;42.692;23.312;2024-01-15T13:08:06;94137.69;;;6.42;51.44
11124;BME280;5616;42.692;23.312;2024-01-15T13:10:32;94129.22;;;6.41;49.70
11124;BME280;5616;42.692;23.312;2024-01-15T13:12:58;94123.75;;;6.38;51.14
11124;BME280;5616;42.692;23.312;2024-01-15T13:15:23;94103.31;;;6.38;49.88
11124;BME280;5616;42.692;23.312;2024-01-15T13:17:49;94116.69;;;6.40;51.24
11124;BME280;5616;42.692;23.312;2024-01-15T13:20:14;94113.16;;;6.41;50.79
11124;BME280;5616;42.692;23.312;2024-01-15T13:22:40;94111.56;;;6.40;51.29
11124;BME280;5616;42.692;23.312;2024-01-15T13:25:08;94113.91;;;6.41;51.46